sensor_id;sensor_type;location;lat;lon;timestamp;pressure;altitude;pressure_sealevel;temperature;humidity
25638;BME280;13496;51.040;13.680;2023-08-01T00:01:29;98584.31;;;25.52;42.36
25638;BME280;13496;51.040;13.680;2023-08-01T00:06:31;98569.44;;;25.51;42.13
25638;BME280;13496;51.040;13.680;2023-08-01T00:11:33;98565.97;;;25.51;42.17
25638;BME280;13496;51.040;13.680;2023-08-01T00:16:35;98546.06;;;25.48;42.65
25638;BME280;13496;51.040;13.680;2023-08-01T00:21:36;98544.44;;;25.47;42.58
25638;BME280;13496;51.040;13.680;2023-08-01T00:26:38;98535.69;;;25.47;42.48
25638;BME280;13496;51.040;13.680;2023-08-01T00:31:40;98527.19;;;25.45;42.75
25638;BME280;13496;51.040;13.680;2023-08-01T00:36:41;98508.59;;;25.45;42.70
25638;BME280;13496;51.040;13.680;2023-08-01T00:41:43;98503.53;;;25.43;43.01
25638;BME280;13496;51.040;13.680;2023-08-01T00:46:45;98495.06;;;25.41;42.76
25638;BME280;13496;51.040;13.680;2023-08-01T00:51:47;98487.09;;;25.41;42.84
25638;BME280;13496;51.040;13.680;2023-08-01T00:56:50;98486.28;;;25.41;42.91
25638;BME280;13496;51.040;13.680;2023-08-01T01:01:52;98469.56;;;25.40;42.82
25638;BME280;13496;51.040;13.680;2023-08-01T01:07:06;98463.72;;;25.38;42.75
25638;BME280;13496;51.040;13.680;2023-08-01T01:12:08;98456.81;;;25.37;42.76
25638;BME280;13496;51.040;13.680;2023-08-01T01:17:09;98448.06;;;25.37;43.07
25638;BME280;13496;51.040;13.680;2023-08-01T01:22:11;98439.53;;;25.34;42.80
25638;BME280;13496;51.040;13.680;2023-08-01T01:27:16;98443.00;;;25.35;42.98
25638;BME280;13496;51.040;13.680;2023-08-01T01:32:19;98432.38;;;25.35;43.04
25638;BME280;13496;51.040;13.680;2023-08-01T01:37:21;98431.84;;;25.33;42.99
25638;BME280;13496;51.040;13.680;2023-08-01T01:42:23;98423.34;;;25.31;42.91
25638;BME280;13496;51.040;13.680;2023-08-01T01:47:25;98422.56;;;25.30;43.40
25638;BME280;13496;51.040;13.680;2023-08-01T01:52:26;98419.09;;;25.30;42.78
25638;BME280;13496;51.040;13.680;2023-08-01T01:57:28;98427.88;;;25.30;42.74
25638;BME280;13496;51.040;13.680;2023-08-01T02:02:30;98420.16;;;25.29;42.93
25638;BME280;13496;51.040;13.680;2023-08-01T02:07:31;98403.41;;;25.28;42.99
25638;BME280;13496;51.040;13.680;2023-08-01T02:12:35;98394.16;;;25.26;42.72
25638;BME280;13496;51.040;13.680;2023-08-01T02:17:39;98389.63;;;25.26;42.73
25638;BME280;13496;51.040;13.680;2023-08-01T02:22:41;98376.34;;;25.26;42.70
25638;BME280;13496;51.040;13.680;2023-08-01T02:27:42;98366.81;;;25.25;42.93
25638;BME280;13496;51.040;13.680;2023-08-01T02:32:45;98366.53;;;25.27;42.78
25638;BME280;13496;51.040;13.680;2023-08-01T02:37:46;98344.75;;;25.25;42.78
25638;BME280;13496;51.040;13.680;2023-08-01T02:42:48;98336.25;;;25.23;42.89
25638;BME280;13496;51.040;13.680;2023-08-01T02:47:50;98330.97;;;25.23;43.04
25638;BME280;13496;51.040;13.680;2023-08-01T02:52:52;98335.47;;;25.22;42.75
25638;BME280;13496;51.040;13.680;2023-08-01T02:57:53;98321.13;;;25.23;43.07
25638;BME280;13496;51.040;13.680;2023-08-01T03:02:55;98303.88;;;25.21;42.93
25638;BME280;13496;51.040;13.680;2023-08-01T03:07:58;98300.41;;;25.20;43.25
25638;BME280;13496;51.040;13.680;2023-08-01T03:13:00;98293.53;;;25.19;43.11
25638;BME280;13496;51.040;13.680;2023-08-01T03:18:02;98282.13;;;25.19;43.13
25638;BME280;13496;51.040;13.680;2023-08-01T03:23:04;98268.84;;;25.19;43.05
25638;BME280;13496;51.040;13.680;2023-08-01T03:28:07;98265.41;;;25.18;42.86
25638;BME280;13496;51.040;13.680;2023-08-01T03:33:09;98251.31;;;25.18;42.78
25638;BME280;13496;51.040;13.680;2023-08-01T03:38:10;98243.34;;;25.18;42.76
25638;BME280;13496;51.040;13.680;2023-08-01T03:43:12;98242.56;;;25.17;43.16
25638;BME280;13496;51.040;13.680;2023-08-01T03:48:14;98237.81;;;25.14;43.30
25638;BME280;13496;51.040;13.680;2023-08-01T03:53:16;98230.88;;;25.13;43.39
25638;BME280;13496;51.040;13.680;2023-08-01T03:58:17;98220.25;;;25.13;43.01
25638;BME280;13496;51.040;13.680;2023-08-01T04:03:19;98209.66;;;25.13;42.90
25638;BME280;13496;51.040;13.680;2023-08-01T04:08:21;98216.56;;;25.14;43.00
25638;BME280;13496;51.040;13.680;2023-08-01T04:13:23;98213.63;;;25.16;42.97
25638;BME280;13496;51.040;13.680;2023-08-01T04:18:24;98206.47;;;25.16;42.85
25638;BME280;13496;51.040;13.680;2023-08-01T04:23:26;98201.16;;;25.16;42.85
25638;BME280;13496;51.040;13.680;2023-08-01T04:28:28;98203.03;;;25.16;42.94
25638;BME280;13496;51.040;13.680;2023-08-01T04:33:29;98199.03;;;25.13;42.95
25638;BME280;13496;51.040;13.680;2023-08-01T04:38:31;98195.59;;;25.13;43.05
25638;BME280;13496;51.040;13.680;2023-08-01T04:43:33;98173.84;;;25.10;43.39
25638;BME280;13496;51.040;13.680;2023-08-01T04:48:35;98164.81;;;25.12;43.23
25638;BME280;13496;51.040;13.680;2023-08-01T04:53:36;98166.38;;;25.13;43.15
25638;BME280;13496;51.040;13.680;2023-08-01T04:58:38;98149.69;;;25.12;42.88
25638;BME280;13496;51.040;13.680;2023-08-01T05:03:40;98145.44;;;25.11;42.87
25638;BME280;13496;51.040;13.680;2023-08-01T05:08:41;98148.88;;;25.12;42.98
25638;BME280;13496;51.040;13.680;2023-08-01T05:13:43;98142.00;;;25.10;43.29
25638;BME280;13496;51.040;13.680;2023-08-01T05:18:45;98136.69;;;25.10;43.05
25638;BME280;13496;51.040;13.680;2023-08-01T05:23:46;98128.94;;;25.09;42.90
25638;BME280;13496;51.040;13.680;2023-08-01T05:28:48;98134.25;;;25.09;42.96
25638;BME280;13496;51.040;13.680;2023-08-01T05:33:50;98120.97;;;25.09;42.96
25638;BME280;13496;51.040;13.680;2023-08-01T05:38:52;98124.72;;;25.08;43.25
25638;BME280;13496;51.040;13.680;2023-08-01T05:43:53;98118.09;;;25.10;43.12
25638;BME280;13496;51.040;13.680;2023-08-01T05:48:55;98105.84;;;25.09;43.14
25638;BME280;13496;51.040;13.680;2023-08-01T05:53:57;98102.41;;;25.09;43.04
25638;BME280;13496;51.040;13.680;2023-08-01T05:58:58;98095.00;;;25.11;42.98
25638;BME280;13496;51.040;13.680;2023-08-01T06:04:00;98084.41;;;25.11;43.07
25638;BME280;13496;51.040;13.680;2023-08-01T06:09:02;98088.91;;;25.10;42.96
25638;BME280;13496;51.040;13.680;2023-08-01T06:14:04;98074.28;;;25.13;43.02
25638;BME280;13496;51.040;13.680;2023-08-01T06:19:05;98073.50;;;25.13;42.96
25638;BME280;13496;51.040;13.680;2023-08-01T06:24:07;98069.25;;;25.12;43.20
25638;BME280;13496;51.040;13.680;2023-08-01T06:29:09;98069.25;;;25.12;42.88
25638;BME280;13496;51.040;13.680;2023-08-01T06:34:11;98081.47;;;25.13;43.13
25638;BME280;13496;51.040;13.680;2023-08-01T06:39:13;98079.09;;;25.11;42.97
25638;BME280;13496;51.040;13.680;2023-08-01T06:44:15;98082.53;;;25.12;42.99
25638;BME280;13496;51.040;13.680;2023-08-01T06:49:16;98081.47;;;25.13;43.45
25638;BME280;13496;51.040;13.680;2023-08-01T06:54:18;98071.91;;;25.12;42.80
25638;BME280;13496;51.040;13.680;2023-08-01T06:59:20;98073.00;;;25.10;43.49
25638;BME280;13496;51.040;13.680;2023-08-01T07:04:21;98067.69;;;25.10;43.18
25638;BME280;13496;51.040;13.680;2023-08-01T07:09:23;98066.59;;;25.12;43.11
25638;BME280;13496;51.040;13.680;2023-08-01T07:14:25;98069.25;;;25.12;42.96
25638;BME280;13496;51.040;13.680;2023-08-01T07:19:27;98067.13;;;25.14;43.00
25638;BME280;13496;51.040;13.680;2023-08-01T07:24:29;98060.75;;;25.15;42.77
25638;BME280;13496;51.040;13.680;2023-08-01T07:29:30;98061.56;;;25.15;43.11
25638;BME280;13496;51.040;13.680;2023-08-01T07:34:32;98057.78;;;25.21;43.15
25638;BME280;13496;51.040;13.680;2023-08-01T07:39:34;98069.75;;;25.19;43.13
25638;BME280;13496;51.040;13.680;2023-08-01T07:44:36;98074.53;;;25.17;43.11
25638;BME280;13496;51.040;13.680;2023-08-01T07:49:38;98068.16;;;25.18;43.29
25638;BME280;13496;51.040;13.680;2023-08-01T07:54:40;98058.34;;;25.18;43.22
25638;BME280;13496;51.040;13.680;2023-08-01T07:59:42;98054.63;;;25.19;43.16
25638;BME280;13496;51.040;13.680;2023-08-01T08:04:44;98062.31;;;25.21;43.00
25638;BME280;13496;51.040;13.680;2023-08-01T08:09:45;98054.34;;;25.21;43.15
25638;BME280;13496;51.040;13.680;2023-08-01T08:14:47;98059.41;;;25.22;43.36
25638;BME280;13496;51.040;13.680;2023-08-01T08:19:49;98050.06;;;25.25;43.38
25638;BME280;13496;51.040;13.680;2023-08-01T08:24:51;98042.94;;;25.25;43.42
25638;BME280;13496;51.040;13.680;2023-08-01T08:29:53;98025.13;;;25.26;43.42
25638;BME280;13496;51.040;13.680;2023-08-01T08:34:55;98025.63;;;25.28;43.67
25638;BME280;13496;51.040;13.680;2023-08-01T08:39:56;98027.25;;;25.29;43.78
25638;BME280;13496;51.040;13.680;2023-08-01T08:45:01;98038.91;;;25.28;44.34
25638;BME280;13496;51.040;13.680;2023-08-01T08:50:03;98041.03;;;25.31;43.85
25638;BME280;13496;51.040;13.680;2023-08-01T08:55:06;98049.53;;;25.33;43.92
25638;BME280;13496;51.040;13.680;2023-08-01T09:00:08;98040.19;;;25.35;43.42
25638;BME280;13496;51.040;13.680;2023-08-01T09:05:11;98030.34;;;25.36;43.37
25638;BME280;13496;51.040;13.680;2023-08-01T09:10:13;98005.91;;;25.39;43.61
25638;BME280;13496;51.040;13.680;2023-08-01T09:15:15;98007.00;;;25.38;43.52
25638;BME280;13496;51.040;13.680;2023-08-01T09:20:17;98005.91;;;25.39;43.37
25638;BME280;13496;51.040;13.680;2023-08-01T09:25:19;98008.31;;;25.41;43.43
25638;BME280;13496;51.040;13.680;2023-08-01T09:30:21;98003.78;;;25.41;44.00
25638;BME280;13496;51.040;13.680;2023-08-01T09:35:24;97960.53;;;25.41;43.46
25638;BME280;13496;51.040;13.680;2023-08-01T09:40:36;97984.91;;;25.43;43.20
25638;BME280;13496;51.040;13.680;2023-08-01T09:45:48;98002.19;;;25.45;43.09
25638;BME280;13496;51.040;13.680;2023-08-01T09:50:50;97975.88;;;25.44;43.23
25638;BME280;13496;51.040;13.680;2023-08-01T09:55:52;97961.56;;;25.45;43.03
25638;BME280;13496;51.040;13.680;2023-08-01T10:00:55;97977.19;;;25.46;43.37
25638;BME280;13496;51.040;13.680;2023-08-01T10:05:58;97969.22;;;25.46;43.17
25638;BME280;13496;51.040;13.680;2023-08-01T10:11:04;97998.19;;;25.48;43.14
25638;BME280;13496;51.040;13.680;2023-08-01T10:16:06;98000.03;;;25.47;43.17
25638;BME280;13496;51.040;13.680;2023-08-01T10:21:12;98000.56;;;25.49;43.08
25638;BME280;13496;51.040;13.680;2023-08-01T10:26:15;98023.38;;;25.50;43.12
25638;BME280;13496;51.040;13.680;2023-08-01T10:31:19;98024.16;;;25.51;42.94
25638;BME280;13496;51.040;13.680;2023-08-01T10:36:23;98032.66;;;25.53;43.01
25638;BME280;13496;51.040;13.680;2023-08-01T10:41:33;98032.38;;;25.54;43.14
25638;BME280;13496;51.040;13.680;2023-08-01T10:51:53;98021.19;;;25.57;43.04
25638;BME280;13496;51.040;13.680;2023-08-01T10:56:56;98022.78;;;25.58;42.97
25638;BME280;13496;51.040;13.680;2023-08-01T11:02:01;98000.19;;;25.61;43.17
25638;BME280;13496;51.040;13.680;2023-08-01T11:07:04;98008.94;;;25.62;42.97
25638;BME280;13496;51.040;13.680;2023-08-01T11:12:07;97999.94;;;25.63;43.06
25638;BME280;13496;51.040;13.680;2023-08-01T11:17:08;97991.69;;;25.64;43.16
25638;BME280;13496;51.040;13.680;2023-08-01T11:22:10;97997.78;;;25.65;43.08
25638;BME280;13496;51.040;13.680;2023-08-01T11:27:12;97990.34;;;25.67;43.17
25638;BME280;13496;51.040;13.680;2023-08-01T11:32:14;97998.81;;;25.69;42.81
25638;BME280;13496;51.040;13.680;2023-08-01T11:37:18;98011.25;;;25.73;42.75
25638;BME280;13496;51.040;13.680;2023-08-01T11:42:20;98004.09;;;25.74;43.04
25638;BME280;13496;51.040;13.680;2023-08-01T11:47:21;98015.22;;;25.76;42.85
25638;BME280;13496;51.040;13.680;2023-08-01T11:52:28;97995.56;;;25.77;42.84
25638;BME280;13496;51.040;13.680;2023-08-01T11:57:30;97999.28;;;25.76;42.97
25638;BME280;13496;51.040;13.680;2023-08-01T12:02:32;98026.66;;;25.76;42.95
25638;BME280;13496;51.040;13.680;2023-08-01T12:07:34;98062.25;;;25.75;42.68
25638;BME280;13496;51.040;13.680;2023-08-01T12:12:44;98089.66;;;25.71;42.61
25638;BME280;13496;51.040;13.680;2023-08-01T12:17:46;98082.47;;;25.71;42.46
25638;BME280;13496;51.040;13.680;2023-08-01T12:22:47;98092.81;;;25.73;42.68
25638;BME280;13496;51.040;13.680;2023-08-01T12:27:49;98108.75;;;25.78;42.86
25638;BME280;13496;51.040;13.680;2023-08-01T12:32:51;98105.56;;;25.76;42.90
25638;BME280;13496;51.040;13.680;2023-08-01T12:37:53;98118.34;;;25.69;42.78
25638;BME280;13496;51.040;13.680;2023-08-01T12:42:55;98127.13;;;25.69;42.85
25638;BME280;13496;51.040;13.680;2023-08-01T12:47:56;98146.78;;;25.68;43.10
25638;BME280;13496;51.040;13.680;2023-08-01T12:52:58;98162.22;;;25.66;43.11
25638;BME280;13496;51.040;13.680;2023-08-01T12:58:00;98169.38;;;25.66;43.14
25638;BME280;13496;51.040;13.680;2023-08-01T13:03:02;98166.47;;;25.67;42.98
25638;BME280;13496;51.040;13.680;2023-08-01T13:08:04;98161.13;;;25.67;43.32
25638;BME280;13496;51.040;13.680;2023-08-01T13:13:06;98162.19;;;25.71;43.05
25638;BME280;13496;51.040;13.680;2023-08-01T13:18:07;98144.09;;;25.73;42.93
25638;BME280;13496;51.040;13.680;2023-08-01T13:23:09;98152.06;;;25.73;42.94
25638;BME280;13496;51.040;13.680;2023-08-01T13:28:11;98147.00;;;25.77;43.06
25638;BME280;13496;51.040;13.680;2023-08-01T13:33:13;98160.28;;;25.77;43.09
25638;BME280;13496;51.040;13.680;2023-08-01T13:38:14;98160.84;;;25.79;43.19
25638;BME280;13496;51.040;13.680;2023-08-01T13:43:18;98156.06;;;25.81;43.21
25638;BME280;13496;51.040;13.680;2023-08-01T13:48:20;98165.59;;;25.82;42.79
25638;BME280;13496;51.040;13.680;2023-08-01T13:53:21;98155.47;;;25.84;43.00
25638;BME280;13496;51.040;13.680;2023-08-01T13:58:23;98155.47;;;25.84;43.11
25638;BME280;13496;51.040;13.680;2023-08-01T14:03:25;98168.22;;;25.87;43.12
25638;BME280;13496;51.040;13.680;2023-08-01T14:08:26;98177.78;;;25.88;43.23
25638;BME280;13496;51.040;13.680;2023-08-01T14:13:28;98167.16;;;25.88;42.90
25638;BME280;13496;51.040;13.680;2023-08-01T14:18:30;98161.84;;;25.88;43.25
25638;BME280;13496;51.040;13.680;2023-08-01T14:23:31;98150.41;;;25.88;42.96
25638;BME280;13496;51.040;13.680;2023-08-01T14:28:33;98139.53;;;25.89;43.03
25638;BME280;13496;51.040;13.680;2023-08-01T14:33:35;98142.69;;;25.91;43.08
25638;BME280;13496;51.040;13.680;2023-08-01T14:38:36;98159.16;;;25.93;42.88
25638;BME280;13496;51.040;13.680;2023-08-01T14:43:38;98157.00;;;25.95;43.04
25638;BME280;13496;51.040;13.680;2023-08-01T14:48:40;98162.31;;;25.95;43.27
25638;BME280;13496;51.040;13.680;2023-08-01T14:53:42;98171.63;;;25.98;43.08
25638;BME280;13496;51.040;13.680;2023-08-01T14:58:43;98159.66;;;26.00;43.35
25638;BME280;13496;51.040;13.680;2023-08-01T15:03:45;98157.78;;;26.01;43.22
25638;BME280;13496;51.040;13.680;2023-08-01T15:08:47;98168.13;;;26.02;43.15
25638;BME280;13496;51.040;13.680;2023-08-01T15:13:49;98188.34;;;26.03;43.20
25638;BME280;13496;51.040;13.680;2023-08-01T15:18:50;98196.31;;;26.03;43.22
25638;BME280;13496;51.040;13.680;2023-08-01T15:23:52;98196.31;;;26.03;42.85
25638;BME280;13496;51.040;13.680;2023-08-01T15:28:55;98211.44;;;26.03;42.91
25638;BME280;13496;51.040;13.680;2023-08-01T15:33:57;98204.28;;;26.03;43.17
25638;BME280;13496;51.040;13.680;2023-08-01T15:38:58;98213.59;;;26.01;42.87
25638;BME280;13496;51.040;13.680;2023-08-01T15:44:00;98215.47;;;26.00;43.02
25638;BME280;13496;51.040;13.680;2023-08-01T15:49:02;98216.25;;;26.01;43.26
25638;BME280;13496;51.040;13.680;2023-08-01T15:54:06;98222.09;;;26.03;43.12
25638;BME280;13496;51.040;13.680;2023-08-01T15:59:09;98217.00;;;26.06;43.24
25638;BME280;13496;51.040;13.680;2023-08-01T16:04:10;98224.47;;;26.04;42.85
25638;BME280;13496;51.040;13.680;2023-08-01T16:09:14;98225.53;;;26.09;42.90
25638;BME280;13496;51.040;13.680;2023-08-01T16:14:15;98222.56;;;26.10;43.08
25638;BME280;13496;51.040;13.680;2023-08-01T16:19:17;98209.03;;;26.12;42.80
25638;BME280;13496;51.040;13.680;2023-08-01T16:24:19;98218.03;;;26.16;43.16
25638;BME280;13496;51.040;13.680;2023-08-01T16:29:20;98223.84;;;26.18;42.96
25638;BME280;13496;51.040;13.680;2023-08-01T16:34:22;98226.50;;;26.18;42.94
25638;BME280;13496;51.040;13.680;2023-08-01T16:39:24;98242.22;;;26.19;42.87
25638;BME280;13496;51.040;13.680;2023-08-01T16:44:26;98256.28;;;26.20;43.43
25638;BME280;13496;51.040;13.680;2023-08-01T16:49:27;98252.56;;;26.21;43.11
25638;BME280;13496;51.040;13.680;2023-08-01T16:54:29;98269.31;;;26.21;42.90
25638;BME280;13496;51.040;13.680;2023-08-01T16:59:31;98273.81;;;26.21;42.96
25638;BME280;13496;51.040;13.680;2023-08-01T17:04:32;98278.66;;;26.19;43.27
25638;BME280;13496;51.040;13.680;2023-08-01T17:09:34;98274.91;;;26.20;43.08
25638;BME280;13496;51.040;13.680;2023-08-01T17:14:36;98270.66;;;26.19;42.79
25638;BME280;13496;51.040;13.680;2023-08-01T17:19:38;98282.88;;;26.20;43.13
25638;BME280;13496;51.040;13.680;2023-08-01T17:24:40;98271.16;;;26.21;42.95
25638;BME280;13496;51.040;13.680;2023-08-01T17:29:42;98275.44;;;26.22;42.83
25638;BME280;13496;51.040;13.680;2023-08-01T17:34:44;98280.19;;;26.25;42.69
25638;BME280;13496;51.040;13.680;2023-08-01T17:39:46;98287.66;;;26.23;43.19
25638;BME280;13496;51.040;13.680;2023-08-01T17:44:48;98279.69;;;26.23;42.79
25638;BME280;13496;51.040;13.680;2023-08-01T17:49:49;98283.13;;;26.23;42.82
25638;BME280;13496;51.040;13.680;2023-08-01T17:54:51;98293.75;;;26.23;42.78
25638;BME280;13496;51.040;13.680;2023-08-01T17:59:53;98297.50;;;26.22;43.00
25638;BME280;13496;51.040;13.680;2023-08-01T18:04:54;98304.16;;;26.20;43.08
25638;BME280;13496;51.040;13.680;2023-08-01T18:09:57;98307.34;;;26.22;42.72
25638;BME280;13496;51.040;13.680;2023-08-01T18:14:59;98316.66;;;26.19;42.86
25638;BME280;13496;51.040;13.680;2023-08-01T18:20:00;98327.53;;;26.18;42.83
25638;BME280;13496;51.040;13.680;2023-08-01T18:25:02;98327.03;;;26.16;43.14
25638;BME280;13496;51.040;13.680;2023-08-01T18:30:04;98339.00;;;26.13;42.91
25638;BME280;13496;51.040;13.680;2023-08-01T18:35:06;98345.94;;;26.14;42.85
25638;BME280;13496;51.040;13.680;2023-08-01T18:40:08;98357.34;;;26.15;42.74
25638;BME280;13496;51.040;13.680;2023-08-01T18:45:10;98368.25;;;26.13;43.01
25638;BME280;13496;51.040;13.680;2023-08-01T18:50:12;98374.34;;;26.14;42.93
25638;BME280;13496;51.040;13.680;2023-08-01T18:55:14;98382.34;;;26.09;42.96
25638;BME280;13496;51.040;13.680;2023-08-01T19:00:16;98387.97;;;26.07;42.97
25638;BME280;13496;51.040;13.680;2023-08-01T19:05:17;98396.72;;;26.08;42.82
25638;BME280;13496;51.040;13.680;2023-08-01T19:10:19;98407.63;;;26.06;42.95
25638;BME280;13496;51.040;13.680;2023-08-01T19:15:21;98412.41;;;26.04;42.76
25638;BME280;13496;51.040;13.680;2023-08-01T19:20:23;98415.34;;;26.02;42.81
25638;BME280;13496;51.040;13.680;2023-08-01T19:25:24;98425.97;;;26.02;42.83
25638;BME280;13496;51.040;13.680;2023-08-01T19:30:26;98427.56;;;25.98;43.34
25638;BME280;13496;51.040;13.680;2023-08-01T19:35:41;98437.16;;;25.94;43.16
25638;BME280;13496;51.040;13.680;2023-08-01T19:40:43;98451.50;;;25.93;43.34
25638;BME280;13496;51.040;13.680;2023-08-01T19:45:45;98455.25;;;25.92;43.14
25638;BME280;13496;51.040;13.680;2023-08-01T19:50:47;98460.56;;;25.92;43.47
25638;BME280;13496;51.040;13.680;2023-08-01T19:55:54;98469.56;;;25.91;42.91
25638;BME280;13496;51.040;13.680;2023-08-01T20:00:57;98475.97;;;25.90;43.40
25638;BME280;13496;51.040;13.680;2023-08-01T20:05:58;98473.59;;;25.89;43.13
25638;BME280;13496;51.040;13.680;2023-08-01T20:11:01;98483.66;;;25.92;43.25
25638;BME280;13496;51.040;13.680;2023-08-01T20:16:04;98492.97;;;25.89;43.27
25638;BME280;13496;51.040;13.680;2023-08-01T20:21:05;98497.50;;;25.89;42.90
25638;BME280;13496;51.040;13.680;2023-08-01T20:26:07;98499.63;;;25.87;43.11
25638;BME280;13496;51.040;13.680;2023-08-01T20:31:09;98513.69;;;25.87;43.01
25638;BME280;13496;51.040;13.680;2023-08-01T20:36:10;98506.00;;;25.86;43.02
25638;BME280;13496;51.040;13.680;2023-08-01T20:41:14;98509.19;;;25.82;42.86
25638;BME280;13496;51.040;13.680;2023-08-01T20:46:15;98508.41;;;25.82;43.12
25638;BME280;13496;51.040;13.680;2023-08-01T20:51:17;98524.06;;;25.78;42.99
25638;BME280;13496;51.040;13.680;2023-08-01T20:56:19;98529.38;;;25.78;42.80
25638;BME280;13496;51.040;13.680;2023-08-01T21:01:20;98523.50;;;25.76;42.86
25638;BME280;13496;51.040;13.680;2023-08-01T21:06:22;98521.38;;;25.73;42.64
25638;BME280;13496;51.040;13.680;2023-08-01T21:11:24;98525.09;;;25.72;42.61
25638;BME280;13496;51.040;13.680;2023-08-01T21:16:26;98515.53;;;25.71;43.02
25638;BME280;13496;51.040;13.680;2023-08-01T21:21:27;98525.09;;;25.67;42.89
25638;BME280;13496;51.040;13.680;2023-08-01T21:26:29;98522.97;;;25.64;42.98
25638;BME280;13496;51.040;13.680;2023-08-01T21:31:31;98525.06;;;25.62;43.02
25638;BME280;13496;51.040;13.680;2023-08-01T21:36:32;98531.72;;;25.59;42.79
25638;BME280;13496;51.040;13.680;2023-08-01T21:41:34;98535.97;;;25.61;43.04
25638;BME280;13496;51.040;13.680;2023-08-01T21:46:36;98540.50;;;25.60;42.99
25638;BME280;13496;51.040;13.680;2023-08-01T21:51:38;98534.91;;;25.56;43.23
25638;BME280;13496;51.040;13.680;2023-08-01T21:56:39;98534.38;;;25.54;43.08
25638;BME280;13496;51.040;13.680;2023-08-01T22:01:41;98546.06;;;25.53;42.88
25638;BME280;13496;51.040;13.680;2023-08-01T22:06:43;98549.78;;;25.52;42.87
25638;BME280;13496;51.040;13.680;2023-08-01T22:11:44;98550.03;;;25.51;42.84
25638;BME280;13496;51.040;13.680;2023-08-01T22:16:46;98545.00;;;25.49;43.08
25638;BME280;13496;51.040;13.680;2023-08-01T22:21:48;98557.72;;;25.47;43.06
25638;BME280;13496;51.040;13.680;2023-08-01T22:26:49;98542.84;;;25.46;43.08
25638;BME280;13496;51.040;13.680;2023-08-01T22:31:52;98556.13;;;25.46;42.75
25638;BME280;13496;51.040;13.680;2023-08-01T22:36:53;98549.25;;;25.45;42.96
25638;BME280;13496;51.040;13.680;2023-08-01T22:41:55;98554.78;;;25.44;43.13
25638;BME280;13496;51.040;13.680;2023-08-01T22:46:57;98551.34;;;25.43;43.00
25638;BME280;13496;51.040;13.680;2023-08-01T22:51:58;98556.13;;;25.41;43.28
25638;BME280;13496;51.040;13.680;2023-08-01T22:57:00;98557.19;;;25.40;42.83
25638;BME280;13496;51.040;13.680;2023-08-01T23:02:02;98559.03;;;25.40;42.92
25638;BME280;13496;51.040;13.680;2023-08-01T23:07:04;98568.88;;;25.39;43.12
25638;BME280;13496;51.040;13.680;2023-08-01T23:12:06;98568.59;;;25.35;42.92
25638;BME280;13496;51.040;13.680;2023-08-01T23:17:08;98562.47;;;25.35;42.90
25638;BME280;13496;51.040;13.680;2023-08-01T23:22:11;98566.72;;;25.36;43.50
25638;BME280;13496;51.040;13.680;2023-08-01T23:27:13;98568.34;;;25.37;43.05
25638;BME280;13496;51.040;13.680;2023-08-01T23:32:15;98576.31;;;25.37;43.00
25638;BME280;13496;51.040;13.680;2023-08-01T23:37:17;98576.56;;;25.35;42.98
25638;BME280;13496;51.040;13.680;2023-08-01T23:42:18;98572.31;;;25.34;43.31
25638;BME280;13496;51.040;13.680;2023-08-01T23:47:20;98571.53;;;25.34;43.06
25638;BME280;13496;51.040;13.680;2023-08-01T23:52:22;98569.66;;;25.34;42.84
25638;BME280;13496;51.040;13.680;2023-08-01T23:57:24;98560.09;;;25.33;43.16
